Time;durP1;ratioP1;P1;durP2;ratioP2;P2;SDS_P1;SDS_P2;PMS_P1;PMS_P2;Temp;Humidity;BMP_temperature;BMP_pressure;BME280_temperature;BME280_humidity;BME280_pressure;Samples;Min_cycle;Max_cycle;Signal;HPM_P1;HPM_P2
2021/09/23 00:03:57;;;;;;;0.25;0.25;;;;;;;;;;10386137;28;20049;-63
2021/09/23 00:09:02;;;;;;;0.30;0.30;;;;;;;;;;10388242;28;20053;-63
2021/09/23 00:14:05;;;;;;;0.30;0.30;;;;;;;;;;10388224;28;20148;-62
2021/09/23 00:19:09;;;;;;;0.30;0.30;;;;;;;;;;10389443;28;20057;-62
2021/09/23 00:24:13;;;;;;;0.77;0.30;;;;;;;;;;10388489;28;20041;-62
2021/09/23 00:29:16;;;;;;;0.30;0.30;;;;;;;;;;10388130;28;20053;-63
2021/09/23 00:34:18;;;;;;;0.38;0.30;;;;;;;;;;10383420;28;20496;-62
2021/09/23 00:39:23;;;;;;;0.30;0.30;;;;;;;;;;10387287;28;20065;-63
2021/09/23 00:44:26;;;;;;;0.25;0.25;;;;;;;;;;10384477;28;20050;-63
2021/09/23 00:49:29;;;;;;;0.20;0.20;;;;;;;;;;10384553;28;20049;-62
2021/09/23 00:54:34;;;;;;;0.30;0.30;;;;;;;;;;10387504;28;20138;-62
2021/09/23 00:59:37;;;;;;;0.30;0.30;;;;;;;;;;10395451;28;20067;-63
2021/09/23 01:04:44;;;;;;;0.20;0.20;;;;;;;;;;10389632;28;20099;-63
2021/09/23 01:09:51;;;;;;;0.20;0.20;;;;;;;;;;10388535;28;20058;-63
2021/09/23 01:14:55;;;;;;;0.20;0.20;;;;;;;;;;10392909;28;20038;-63
2021/09/23 01:19:59;;;;;;;0.30;0.30;;;;;;;;;;10394452;28;20061;-62
2021/09/23 01:25:05;;;;;;;0.30;0.30;;;;;;;;;;10392727;28;20705;-63
2021/09/23 01:30:10;;;;;;;0.30;0.30;;;;;;;;;;10392799;28;20064;-62
2021/09/23 01:35:19;;;;;;;0.30;0.30;;;;;;;;;;10392695;28;20404;-63
2021/09/23 01:40:24;;;;;;;0.30;0.30;;;;;;;;;;10390480;28;20127;-63
2021/09/23 01:45:27;;;;;;;0.30;0.30;;;;;;;;;;10392209;28;20054;-63
2021/09/23 01:50:29;;;;;;;0.20;0.20;;;;;;;;;;10393201;28;20056;-62
2021/09/23 01:55:34;;;;;;;0.52;0.40;;;;;;;;;;10392394;28;20550;-63
2021/09/23 02:00:37;;;;;;;0.32;0.32;;;;;;;;;;10409605;28;20081;-63
2021/09/23 02:05:41;;;;;;;0.30;0.30;;;;;;;;;;10390337;28;20075;-63
2021/09/23 02:10:46;;;;;;;0.30;0.30;;;;;;;;;;10389174;28;20045;-63
2021/09/23 02:15:49;;;;;;;0.28;0.28;;;;;;;;;;10389682;28;20451;-62
2021/09/23 02:20:54;;;;;;;0.30;0.30;;;;;;;;;;10390802;28;20425;-62
2021/09/23 02:25:58;;;;;;;0.30;0.30;;;;;;;;;;10389858;28;20049;-62
2021/09/23 02:31:01;;;;;;;0.35;0.35;;;;;;;;;;10390580;28;20056;-62
2021/09/23 02:36:06;;;;;;;0.60;0.40;;;;;;;;;;10389952;28;20056;-63
2021/09/23 02:41:10;;;;;;;0.40;0.40;;;;;;;;;;10386242;28;20500;-63
2021/09/23 02:46:13;;;;;;;0.30;0.30;;;;;;;;;;10387070;28;20048;-63
2021/09/23 02:51:16;;;;;;;0.30;0.30;;;;;;;;;;10382571;28;20065;-63
2021/09/23 02:56:21;;;;;;;0.30;0.20;;;;;;;;;;10390926;28;20045;-63
2021/09/23 03:01:24;;;;;;;0.77;0.43;;;;;;;;;;10387977;28;20049;-69
2021/09/23 03:06:28;;;;;;;0.28;0.25;;;;;;;;;;10387870;28;20512;-67
2021/09/23 03:11:32;;;;;;;0.40;0.40;;;;;;;;;;10386140;28;20054;-66
2021/09/23 03:16:35;;;;;;;0.40;0.40;;;;;;;;;;10385399;28;20567;-67
2021/09/23 03:21:39;;;;;;;0.30;0.30;;;;;;;;;;10386794;28;20048;-66
2021/09/23 03:26:44;;;;;;;0.45;0.30;;;;;;;;;;10380296;28;20149;-66
2021/09/23 03:31:47;;;;;;;0.40;0.40;;;;;;;;;;10384635;28;20053;-66
2021/09/23 03:36:50;;;;;;;0.30;0.30;;;;;;;;;;10387382;28;20757;-67
2021/09/23 03:41:55;;;;;;;0.30;0.30;;;;;;;;;;10382606;28;20045;-66
2021/09/23 03:46:58;;;;;;;0.40;0.40;;;;;;;;;;10382255;28;20045;-66
2021/09/23 03:52:01;;;;;;;0.30;0.30;;;;;;;;;;10385752;28;20060;-67
2021/09/23 03:57:05;;;;;;;0.30;0.30;;;;;;;;;;10386377;28;20053;-67
2021/09/23 04:02:08;;;;;;;0.30;0.30;;;;;;;;;;10386033;28;20045;-68
2021/09/23 04:07:12;;;;;;;0.20;0.20;;;;;;;;;;10386713;28;20038;-67
2021/09/23 04:12:17;;;;;;;0.30;0.30;;;;;;;;;;10385595;28;20069;-66
2021/09/23 04:17:21;;;;;;;0.30;0.30;;;;;;;;;;10384573;28;20103;-66
2021/09/23 04:22:24;;;;;;;0.40;0.40;;;;;;;;;;10381956;28;20081;-68
2021/09/23 04:27:28;;;;;;;0.50;0.40;;;;;;;;;;10385016;28;20057;-67
2021/09/23 04:32:31;;;;;;;0.40;0.40;;;;;;;;;;10388466;28;20752;-67
2021/09/23 04:37:35;;;;;;;0.52;0.50;;;;;;;;;;10392667;28;20484;-67
2021/09/23 04:42:43;;;;;;;0.30;0.30;;;;;;;;;;10390744;28;20076;-67
2021/09/23 04:47:45;;;;;;;0.40;0.40;;;;;;;;;;10390504;28;20045;-67
2021/09/23 04:52:48;;;;;;;0.22;0.20;;;;;;;;;;10390845;28;20053;-67
2021/09/23 04:57:53;;;;;;;0.50;0.40;;;;;;;;;;10388556;28;20045;-66
2021/09/23 05:02:56;;;;;;;0.47;0.40;;;;;;;;;;10388164;28;20068;-67
2021/09/23 05:08:03;;;;;;;0.30;0.30;;;;;;;;;;10413483;28;20506;-68
2021/09/23 05:13:08;;;;;;;0.30;0.30;;;;;;;;;;10468639;28;20571;-67
2021/09/23 05:18:11;;;;;;;0.43;0.40;;;;;;;;;;10473723;28;21026;-67
2021/09/23 05:23:13;;;;;;;0.50;0.40;;;;;;;;;;10473064;28;20052;-68
2021/09/23 05:28:19;;;;;;;0.30;0.30;;;;;;;;;;10460943;28;20044;-67
2021/09/23 05:33:22;;;;;;;0.40;0.40;;;;;;;;;;10453422;28;20135;-67
2021/09/23 05:38:25;;;;;;;0.43;0.43;;;;;;;;;;10466641;28;20127;-71
2021/09/23 05:43:29;;;;;;;0.40;0.40;;;;;;;;;;10458865;28;20451;-67
2021/09/23 05:48:32;;;;;;;0.40;0.40;;;;;;;;;;10459398;28;20128;-72
2021/09/23 05:53:35;;;;;;;0.85;0.40;;;;;;;;;;10453269;28;20048;-67
2021/09/23 05:58:39;;;;;;;0.40;0.40;;;;;;;;;;10455402;28;20045;-68
2021/09/23 06:03:42;;;;;;;0.40;0.40;;;;;;;;;;10449256;28;20463;-68
2021/09/23 06:08:47;;;;;;;0.32;0.32;;;;;;;;;;10462514;28;20723;-70
2021/09/23 06:13:51;;;;;;;0.30;0.30;;;;;;;;;;10470904;28;20780;-69
2021/09/23 06:18:54;;;;;;;0.40;0.40;;;;;;;;;;10464359;28;20613;-67
2021/09/23 06:23:56;;;;;;;0.30;0.30;;;;;;;;;;10467115;28;20075;-71
2021/09/23 06:29:01;;;;;;;0.30;0.30;;;;;;;;;;10461792;28;20063;-73
2021/09/23 06:34:03;;;;;;;0.30;0.30;;;;;;;;;;10467309;28;20128;-71
2021/09/23 06:39:07;;;;;;;0.35;0.35;;;;;;;;;;10459643;28;20501;-71
2021/09/23 06:44:12;;;;;;;0.30;0.30;;;;;;;;;;10465006;28;20048;-70
2021/09/23 06:49:15;;;;;;;0.50;0.30;;;;;;;;;;10462482;28;20145;-68
2021/09/23 06:54:18;;;;;;;0.30;0.30;;;;;;;;;;10467790;28;21207;-67
2021/09/23 06:59:22;;;;;;;0.30;0.30;;;;;;;;;;10464011;28;20150;-67
2021/09/23 07:04:28;;;;;;;0.30;0.30;;;;;;;;;;10465345;28;20079;-67
2021/09/23 07:09:51;;;;;;;0.30;0.30;;;;;;;;;;10469486;28;20052;-66
2021/09/23 07:15:02;;;;;;;0.30;0.30;;;;;;;;;;10465214;28;20045;-67
2021/09/23 07:20:07;;;;;;;0.20;0.20;;;;;;;;;;10460453;28;20044;-67
2021/09/23 07:25:11;;;;;;;0.30;0.30;;;;;;;;;;10466793;28;20491;-66
2021/09/23 07:30:17;;;;;;;0.30;0.30;;;;;;;;;;10469368;28;20052;-66
2021/09/23 07:35:20;;;;;;;0.15;0.15;;;;;;;;;;10452618;28;20058;-66
2021/09/23 07:40:22;;;;;;;0.20;0.20;;;;;;;;;;10463947;28;20411;-67
2021/09/23 07:45:28;;;;;;;0.45;0.20;;;;;;;;;;10454922;28;20179;-67
2021/09/23 07:50:33;;;;;;;0.25;0.20;;;;;;;;;;10468282;28;20041;-67
2021/09/23 07:55:36;;;;;;;0.17;0.17;;;;;;;;;;10458956;28;20049;-66
2021/09/23 08:00:40;;;;;;;0.10;0.10;;;;;;;;;;10464619;28;20059;-66
2021/09/23 08:05:44;;;;;;;0.10;0.10;;;;;;;;;;10464197;28;20439;-67
2021/09/23 08:10:47;;;;;;;0.13;0.13;;;;;;;;;;10465181;28;20044;-67
2021/09/23 08:15:52;;;;;;;0.10;0.10;;;;;;;;;;10471162;28;20075;-67
2021/09/23 08:21:13;;;;;;;0.20;0.20;;;;;;;;;;10479323;28;20052;-67
2021/09/23 08:26:16;;;;;;;0.15;0.15;;;;;;;;;;10469842;28;20049;-67
2021/09/23 08:31:21;;;;;;;0.20;0.20;;;;;;;;;;10466700;28;20056;-68
2021/09/23 08:36:33;;;;;;;0.30;0.20;;;;;;;;;;10471284;28;20048;-67
2021/09/23 08:41:35;;;;;;;0.15;0.10;;;;;;;;;;10477489;28;20140;-67
2021/09/23 08:46:40;;;;;;;0.10;0.10;;;;;;;;;;10472205;28;20047;-67
2021/09/23 08:51:42;;;;;;;0.13;0.13;;;;;;;;;;10492915;28;20052;-67
2021/09/23 08:56:45;;;;;;;0.50;0.20;;;;;;;;;;10474700;28;21515;-68
2021/09/23 09:01:51;;;;;;;0.20;0.10;;;;;;;;;;10472651;28;20070;-68
2021/09/23 09:07:20;;;;;;;0.00;0.00;;;;;;;;;;10467386;28;20052;-68
2021/09/23 09:13:02;;;;;;;0.35;0.10;;;;;;;;;;10445936;28;20098;-67
2021/09/23 09:18:13;;;;;;;0.10;0.10;;;;;;;;;;10457871;28;20122;-67
2021/09/23 09:23:19;;;;;;;0.30;0.10;;;;;;;;;;10460045;28;20457;-67
2021/09/23 09:28:23;;;;;;;0.03;0.03;;;;;;;;;;10442879;28;20187;-67
2021/09/23 09:33:36;;;;;;;0.10;0.00;;;;;;;;;;10464199;28;20057;-67
2021/09/23 09:38:39;;;;;;;0.10;0.10;;;;;;;;;;10457789;28;20199;-66
2021/09/23 09:43:44;;;;;;;0.20;0.10;;;;;;;;;;10461692;28;20045;-67
2021/09/23 09:48:48;;;;;;;0.00;0.00;;;;;;;;;;10455633;28;20048;-66
2021/09/23 09:53:58;;;;;;;0.10;0.10;;;;;;;;;;10469745;28;20529;-67
2021/09/23 09:59:10;;;;;;;0.30;0.00;;;;;;;;;;10456151;28;20049;-66
2021/09/23 10:04:16;;;;;;;0.00;0.00;;;;;;;;;;10462199;28;20082;-66
2021/09/23 10:09:19;;;;;;;0.10;0.10;;;;;;;;;;10459062;28;20477;-66
2021/09/23 10:14:23;;;;;;;0.05;0.05;;;;;;;;;;10461942;28;20506;-66
2021/09/23 10:19:29;;;;;;;0.10;0.10;;;;;;;;;;10457725;28;20985;-66
2021/09/23 10:24:33;;;;;;;0.00;0.00;;;;;;;;;;10465656;28;20048;-66
2021/09/23 10:29:37;;;;;;;0.20;0.00;;;;;;;;;;10459652;28;20549;-66
2021/09/23 10:34:44;;;;;;;0.00;0.00;;;;;;;;;;10468391;28;20063;-66
2021/09/23 10:39:47;;;;;;;0.30;0.05;;;;;;;;;;10469615;28;20109;-67
2021/09/23 10:44:55;;;;;;;0.10;0.10;;;;;;;;;;10467725;28;20041;-67
2021/09/23 10:50:00;;;;;;;0.00;0.00;;;;;;;;;;10468771;28;20040;-67
2021/09/23 10:55:05;;;;;;;0.00;0.00;;;;;;;;;;10459231;28;20159;-67
2021/09/23 11:00:10;;;;;;;0.30;0.05;;;;;;;;;;10461235;28;20036;-67
2021/09/23 11:05:15;;;;;;;0.73;0.10;;;;;;;;;;10459353;28;20045;-66
2021/09/23 11:10:19;;;;;;;0.10;0.10;;;;;;;;;;10445578;28;20102;-67
2021/09/23 11:15:24;;;;;;;0.00;0.00;;;;;;;;;;10459365;28;20056;-67
2021/09/23 11:20:29;;;;;;;0.00;0.00;;;;;;;;;;10458648;28;20075;-67
2021/09/23 11:25:40;;;;;;;0.00;0.00;;;;;;;;;;10464766;28;20048;-66
2021/09/23 11:30:48;;;;;;;0.00;0.00;;;;;;;;;;10466442;28;20056;-67
2021/09/23 11:35:54;;;;;;;0.00;0.00;;;;;;;;;;10463795;28;20135;-67
2021/09/23 11:41:00;;;;;;;0.05;0.05;;;;;;;;;;10460514;28;20492;-67
2021/09/23 11:46:05;;;;;;;1.17;0.20;;;;;;;;;;10461981;28;20052;-67
2021/09/23 11:51:14;;;;;;;0.05;0.00;;;;;;;;;;10467116;28;20041;-67
2021/09/23 11:56:21;;;;;;;0.20;0.08;;;;;;;;;;10462735;28;20102;-67
2021/09/23 12:01:28;;;;;;;0.00;0.00;;;;;;;;;;10465824;28;20047;-68
2021/09/23 12:06:33;;;;;;;0.55;0.08;;;;;;;;;;10483349;28;20080;-67
2021/09/23 12:11:48;;;;;;;0.28;0.00;;;;;;;;;;10465031;28;20115;-67
2021/09/23 12:17:02;;;;;;;0.13;0.05;;;;;;;;;;10466855;28;20052;-66
2021/09/23 12:22:09;;;;;;;0.00;0.00;;;;;;;;;;10475944;28;20143;-67
2021/09/23 12:27:17;;;;;;;0.20;0.10;;;;;;;;;;10459047;28;20049;-67
2021/09/23 12:32:29;;;;;;;0.00;0.00;;;;;;;;;;10449874;28;20092;-67
2021/09/23 12:37:33;;;;;;;;;;;;;;;;;;10464233;28;20102;-68
2021/09/23 12:42:44;;;;;;;1.00;0.00;;;;;;;;;;10465919;28;20378;-68
2021/09/23 12:47:55;;;;;;;0.10;0.00;;;;;;;;;;10466908;28;20510;-67
2021/09/23 12:53:17;;;;;;;0.10;0.00;;;;;;;;;;10452885;28;20519;-68
2021/09/23 12:58:23;;;;;;;0.05;0.00;;;;;;;;;;10472188;28;20186;-68
2021/09/23 13:03:31;;;;;;;0.20;0.00;;;;;;;;;;10467352;28;20052;-68
2021/09/23 13:08:47;;;;;;;0.80;0.00;;;;;;;;;;10473239;28;20045;-68
2021/09/23 13:14:13;;;;;;;0.00;0.00;;;;;;;;;;10471887;28;20947;-68
2021/09/23 13:19:18;;;;;;;0.47;0.10;;;;;;;;;;10469082;28;20147;-67
2021/09/23 13:24:43;;;;;;;0.10;0.00;;;;;;;;;;10463564;28;20048;-67
2021/09/23 13:29:48;;;;;;;0.25;0.00;;;;;;;;;;10468518;28;20048;-68
2021/09/23 13:34:53;;;;;;;0.00;0.00;;;;;;;;;;10469222;28;20048;-67
2021/09/23 13:39:59;;;;;;;0.88;0.05;;;;;;;;;;10474753;28;20163;-67
2021/09/23 13:45:06;;;;;;;0.10;0.00;;;;;;;;;;10465759;28;20056;-68
2021/09/23 13:50:11;;;;;;;0.52;0.00;;;;;;;;;;10470011;28;20045;-67
2021/09/23 13:55:15;;;;;;;0.00;0.00;;;;;;;;;;10472487;28;20129;-68
2021/09/23 14:00:20;;;;;;;0.20;0.00;;;;;;;;;;10470983;28;20139;-68
2021/09/23 14:05:29;;;;;;;0.22;0.00;;;;;;;;;;10460651;28;20056;-68
2021/09/23 14:10:38;;;;;;;0.55;0.00;;;;;;;;;;10465004;28;20049;-68
2021/09/23 14:15:59;;;;;;;0.00;0.00;;;;;;;;;;10453705;28;20418;-68
2021/09/23 14:21:03;;;;;;;0.00;0.00;;;;;;;;;;10485611;28;20045;-68
2021/09/23 14:26:08;;;;;;;0.00;0.00;;;;;;;;;;10463957;28;20136;-68
2021/09/23 14:31:11;;;;;;;0.00;0.00;;;;;;;;;;10455229;28;20045;-68
2021/09/23 14:36:22;;;;;;;0.00;0.00;;;;;;;;;;10463714;28;20110;-68
2021/09/23 14:41:25;;;;;;;0.00;0.00;;;;;;;;;;10465552;28;20052;-67
2021/09/23 14:46:31;;;;;;;0.20;0.00;;;;;;;;;;10459575;28;20064;-68
2021/09/23 14:51:39;;;;;;;0.00;0.00;;;;;;;;;;10468324;28;20550;-68
2021/09/23 14:56:42;;;;;;;0.08;0.03;;;;;;;;;;10460380;28;20444;-68
2021/09/23 15:01:46;;;;;;;0.05;0.00;;;;;;;;;;10458954;28;20048;-67
2021/09/23 15:06:56;;;;;;;0.00;0.00;;;;;;;;;;10466167;28;20052;-68
2021/09/23 15:11:59;;;;;;;0.00;0.00;;;;;;;;;;10460066;28;20499;-68
2021/09/23 15:17:08;;;;;;;0.00;0.00;;;;;;;;;;10464265;28;20041;-67
2021/09/23 15:22:13;;;;;;;0.08;0.00;;;;;;;;;;10462872;28;20596;-68
2021/09/23 15:27:20;;;;;;;0.00;0.00;;;;;;;;;;10464443;28;20058;-68
2021/09/23 15:32:26;;;;;;;0.00;0.00;;;;;;;;;;10460669;28;20041;-67
2021/09/23 15:37:30;;;;;;;0.00;0.00;;;;;;;;;;10461179;28;20510;-68
2021/09/23 15:42:34;;;;;;;0.00;0.00;;;;;;;;;;10454697;28;20048;-69
2021/09/23 15:47:38;;;;;;;0.00;0.00;;;;;;;;;;10457809;28;20490;-65
2021/09/23 15:52:43;;;;;;;0.03;0.00;;;;;;;;;;10456221;28;20033;-66
2021/09/23 15:57:46;;;;;;;0.00;0.00;;;;;;;;;;10459258;28;20065;-67
2021/09/23 16:02:54;;;;;;;0.00;0.00;;;;;;;;;;10443396;28;20490;-63
2021/09/23 16:08:00;;;;;;;0.00;0.00;;;;;;;;;;10462796;28;20186;-67
2021/09/23 16:13:04;;;;;;;0.00;0.00;;;;;;;;;;10466238;28;20048;-68
2021/09/23 16:18:07;;;;;;;0.00;0.00;;;;;;;;;;10466920;28;20466;-65
2021/09/23 16:23:15;;;;;;;0.00;0.00;;;;;;;;;;10461636;28;20482;-67
2021/09/23 16:28:18;;;;;;;0.00;0.00;;;;;;;;;;10466241;28;20044;-72
2021/09/23 16:33:21;;;;;;;0.00;0.00;;;;;;;;;;10466177;28;20041;-68
2021/09/23 16:38:26;;;;;;;0.00;0.00;;;;;;;;;;10471386;28;20123;-65
2021/09/23 16:43:29;;;;;;;0.00;0.00;;;;;;;;;;10468311;28;20122;-64
2021/09/23 16:48:32;;;;;;;0.20;0.00;;;;;;;;;;10472103;28;20766;-65
2021/09/23 16:53:49;;;;;;;0.00;0.00;;;;;;;;;;10465657;28;20040;-69
2021/09/23 16:59:12;;;;;;;0.00;0.00;;;;;;;;;;10472408;28;20045;-68
2021/09/23 17:04:16;;;;;;;0.03;0.03;;;;;;;;;;10471010;28;20068;-68
2021/09/23 17:09:20;;;;;;;0.00;0.00;;;;;;;;;;10467802;28;20068;-63
2021/09/23 17:14:24;;;;;;;0.28;0.00;;;;;;;;;;10473659;28;20064;-67
2021/09/23 17:19:27;;;;;;;0.00;0.00;;;;;;;;;;10477055;28;20045;-66
2021/09/23 17:24:32;;;;;;;0.00;0.00;;;;;;;;;;10471861;28;20793;-64
2021/09/23 17:29:35;;;;;;;0.00;0.00;;;;;;;;;;10474071;28;20043;-65
2021/09/23 17:34:40;;;;;;;0.00;0.00;;;;;;;;;;10468355;28;20055;-66
2021/09/23 17:39:45;;;;;;;0.03;0.00;;;;;;;;;;10476411;28;20127;-66
2021/09/23 17:44:50;;;;;;;0.00;0.00;;;;;;;;;;10464225;28;20550;-66
2021/09/23 17:49:56;;;;;;;0.00;0.00;;;;;;;;;;10446214;28;20032;-66
2021/09/23 17:55:02;;;;;;;0.00;0.00;;;;;;;;;;10456474;28;20109;-66
2021/09/23 18:00:05;;;;;;;0.20;0.00;;;;;;;;;;10458916;28;20060;-67
2021/09/23 18:05:13;;;;;;;0.00;0.00;;;;;;;;;;10465060;28;20060;-67
2021/09/23 18:10:17;;;;;;;0.15;0.00;;;;;;;;;;10462270;28;20049;-67
2021/09/23 18:15:20;;;;;;;0.40;0.00;;;;;;;;;;10467036;28;20053;-67
2021/09/23 18:20:26;;;;;;;0.00;0.00;;;;;;;;;;10459822;28;20040;-67
2021/09/23 18:25:31;;;;;;;0.00;0.00;;;;;;;;;;10462505;28;20113;-67
2021/09/23 18:30:36;;;;;;;0.00;0.00;;;;;;;;;;10462727;28;20055;-67
2021/09/23 18:35:39;;;;;;;0.00;0.00;;;;;;;;;;10464794;28;20048;-67
2021/09/23 18:40:45;;;;;;;0.00;0.00;;;;;;;;;;10464886;28;20048;-67
2021/09/23 18:45:48;;;;;;;0.30;0.00;;;;;;;;;;10458212;28;20887;-67
2021/09/23 18:50:51;;;;;;;0.10;0.10;;;;;;;;;;10454550;28;20486;-66
2021/09/23 18:55:55;;;;;;;0.17;0.10;;;;;;;;;;10457655;28;20055;-66
2021/09/23 19:00:59;;;;;;;0.43;0.10;;;;;;;;;;10456434;28;20044;-66
2021/09/23 19:06:02;;;;;;;0.00;0.00;;;;;;;;;;10452506;28;20053;-66
2021/09/23 19:11:06;;;;;;;0.00;0.00;;;;;;;;;;10441873;28;20049;-67
2021/09/23 19:16:11;;;;;;;0.22;0.00;;;;;;;;;;10442002;28;20178;-66
2021/09/23 19:21:14;;;;;;;0.00;0.00;;;;;;;;;;10446109;28;20110;-67
2021/09/23 19:26:18;;;;;;;0.10;0.00;;;;;;;;;;10451638;28;20054;-67
2021/09/23 19:31:21;;;;;;;0.00;0.00;;;;;;;;;;10454064;28;20036;-67
2021/09/23 19:36:25;;;;;;;0.32;0.00;;;;;;;;;;10446251;28;20504;-67
2021/09/23 19:41:29;;;;;;;0.00;0.00;;;;;;;;;;10451976;28;20548;-67
2021/09/23 19:46:32;;;;;;;0.00;0.00;;;;;;;;;;10452965;28;20062;-67
2021/09/23 19:51:35;;;;;;;0.10;0.03;;;;;;;;;;10446638;28;20049;-67
2021/09/23 19:56:40;;;;;;;0.10;0.00;;;;;;;;;;10458118;28;20051;-66
2021/09/23 20:01:43;;;;;;;0.05;0.05;;;;;;;;;;10452554;28;20064;-66
2021/09/23 20:06:47;;;;;;;0.00;0.00;;;;;;;;;;10451989;28;20102;-66
2021/09/23 20:11:51;;;;;;;0.00;0.00;;;;;;;;;;10461069;28;20123;-67
2021/09/23 20:16:54;;;;;;;0.10;0.08;;;;;;;;;;10461990;28;20060;-66
2021/09/23 20:21:58;;;;;;;0.00;0.00;;;;;;;;;;10449137;28;20045;-66
2021/09/23 20:27:02;;;;;;;0.05;0.05;;;;;;;;;;10458288;28;20432;-66
2021/09/23 20:32:06;;;;;;;0.10;0.05;;;;;;;;;;10446091;28;20044;-66
2021/09/23 20:37:09;;;;;;;0.00;0.00;;;;;;;;;;10459288;28;20058;-65
2021/09/23 20:42:13;;;;;;;0.10;0.10;;;;;;;;;;10449687;28;20037;-66
2021/09/23 20:47:18;;;;;;;0.10;0.00;;;;;;;;;;10454558;28;20123;-66
2021/09/23 20:52:22;;;;;;;0.13;0.00;;;;;;;;;;10447686;28;20048;-66
2021/09/23 20:57:36;;;;;;;0.00;0.00;;;;;;;;;;10452477;28;20138;-66
2021/09/23 21:02:39;;;;;;;0.00;0.00;;;;;;;;;;10405937;28;20045;-66
2021/09/23 21:07:42;;;;;;;0.10;0.00;;;;;;;;;;10417055;28;20483;-66
2021/09/23 21:12:46;;;;;;;0.00;0.00;;;;;;;;;;10418239;28;20490;-66
2021/09/23 21:17:50;;;;;;;0.00;0.00;;;;;;;;;;10429284;28;20454;-66
2021/09/23 21:22:54;;;;;;;0.03;0.03;;;;;;;;;;10429072;28;20128;-66
2021/09/23 21:27:58;;;;;;;0.00;0.00;;;;;;;;;;10422556;28;20469;-66
2021/09/23 21:33:01;;;;;;;0.00;0.00;;;;;;;;;;10420143;28;20044;-66
2021/09/23 21:38:04;;;;;;;0.00;0.00;;;;;;;;;;10423398;28;20495;-66
2021/09/23 21:43:08;;;;;;;0.00;0.00;;;;;;;;;;10421792;28;20155;-66
2021/09/23 21:48:11;;;;;;;0.00;0.00;;;;;;;;;;10397915;28;20156;-66
2021/09/23 21:53:14;;;;;;;0.00;0.00;;;;;;;;;;10390580;28;20047;-66
2021/09/23 21:58:19;;;;;;;0.00;0.00;;;;;;;;;;10390672;28;20050;-66
2021/09/23 22:03:22;;;;;;;0.20;0.00;;;;;;;;;;10390394;28;20500;-66
2021/09/23 22:08:25;;;;;;;0.10;0.10;;;;;;;;;;10392982;28;20056;-66
2021/09/23 22:13:29;;;;;;;0.10;0.03;;;;;;;;;;10385821;28;20120;-66
2021/09/23 22:18:32;;;;;;;0.00;0.00;;;;;;;;;;10377794;28;20100;-66
2021/09/23 22:23:35;;;;;;;0.00;0.00;;;;;;;;;;10381845;28;20048;-65
2021/09/23 22:28:41;;;;;;;0.00;0.00;;;;;;;;;;10374201;28;20869;-65
2021/09/23 22:33:44;;;;;;;0.10;0.00;;;;;;;;;;10372567;28;20046;-65
2021/09/23 22:38:47;;;;;;;0.00;0.00;;;;;;;;;;10379834;28;20049;-65
2021/09/23 22:43:51;;;;;;;0.22;0.00;;;;;;;;;;10379738;28;20041;-66
2021/09/23 22:48:54;;;;;;;0.00;0.00;;;;;;;;;;10381456;28;20100;-65
2021/09/23 22:53:58;;;;;;;0.00;0.00;;;;;;;;;;10374812;28;20037;-65
2021/09/23 22:59:02;;;;;;;0.10;0.08;;;;;;;;;;10376224;28;20544;-66
2021/09/23 23:04:06;;;;;;;0.03;0.03;;;;;;;;;;10382929;28;20046;-66
2021/09/23 23:09:09;;;;;;;0.00;0.00;;;;;;;;;;10383680;28;20072;-66
2021/09/23 23:14:13;;;;;;;0.00;0.00;;;;;;;;;;10385555;28;20129;-66
2021/09/23 23:19:16;;;;;;;0.00;0.00;;;;;;;;;;10379142;28;20136;-66
2021/09/23 23:24:18;;;;;;;0.00;0.00;;;;;;;;;;10384633;28;20144;-66
2021/09/23 23:29:23;;;;;;;0.00;0.00;;;;;;;;;;10382570;28;20053;-66
2021/09/23 23:34:26;;;;;;;0.00;0.00;;;;;;;;;;10386590;28;20428;-66
2021/09/23 23:39:29;;;;;;;0.00;0.00;;;;;;;;;;10387392;28;20547;-66
2021/09/23 23:44:33;;;;;;;0.05;0.05;;;;;;;;;;10386702;28;20045;-66
2021/09/23 23:49:37;;;;;;;0.00;0.00;;;;;;;;;;10381652;28;20389;-66
2021/09/23 23:54:45;;;;;;;0.00;0.00;;;;;;;;;;10369670;28;20041;-66
2021/09/23 23:59:51;;;;;;;0.00;0.00;;;;;;;;;;10373383;28;20045;-65
